createdAt,value
2018-05-24T00:00:01.805Z,3
2018-05-24T00:05:56.603Z,3.28
2018-05-24T00:11:51.565Z,3.01
2018-05-24T00:17:46.611Z,2.76
2018-05-24T00:23:41.567Z,3.13
2018-05-24T00:29:36.590Z,2.94
2018-05-24T00:35:31.619Z,2.7
2018-05-24T00:41:26.612Z,2.75
2018-05-24T00:47:21.583Z,2.87
2018-05-24T00:53:16.619Z,2.6
2018-05-24T00:59:11.658Z,3.38
2018-05-24T01:05:06.639Z,3.16
2018-05-24T01:11:01.612Z,2.88
2018-05-24T01:16:56.645Z,2.76
2018-05-24T01:22:51.638Z,3.01
2018-05-24T01:28:46.667Z,2.6
2018-05-24T01:34:41.683Z,2.7
2018-05-24T01:40:36.673Z,3.14
2018-05-24T01:46:31.672Z,3.15
2018-05-24T01:52:26.709Z,2.88
2018-05-24T01:58:21.671Z,2.99
2018-05-24T02:04:16.776Z,2.4
2018-05-24T02:10:11.677Z,3.07
2018-05-24T02:16:06.681Z,2.97
2018-05-24T02:22:01.711Z,2.62
2018-05-24T02:27:56.675Z,2.35
2018-05-24T02:33:51.695Z,2.73
2018-05-24T02:39:46.733Z,3.67
2018-05-24T02:45:41.719Z,2.59
2018-05-24T02:51:36.711Z,2.2
2018-05-24T02:57:31.730Z,2.49
2018-05-24T03:03:26.735Z,2.3
2018-05-24T03:09:21.783Z,2.61
2018-05-24T03:15:16.748Z,3.02
2018-05-24T03:21:11.791Z,2.37
2018-05-24T03:27:06.757Z,2.7
2018-05-24T03:33:01.800Z,2.94
2018-05-24T03:38:56.741Z,2.83
2018-05-24T03:44:51.794Z,2.6
2018-05-24T03:50:46.805Z,2.77
2018-05-24T03:56:41.762Z,2.77
2018-05-24T04:02:36.788Z,3.37
2018-05-24T04:08:31.792Z,2.84
2018-05-24T04:14:26.840Z,2.94
2018-05-24T04:20:21.812Z,2.94
2018-05-24T04:26:16.786Z,3.08
2018-05-24T04:32:11.915Z,4.92
2018-05-24T04:38:06.863Z,3.56
2018-05-24T04:44:01.940Z,3.17
2018-05-24T04:49:56.819Z,3.33
2018-05-24T04:55:51.833Z,3.54
2018-05-24T05:01:46.825Z,3.72
2018-05-24T05:07:41.929Z,3.93
2018-05-24T05:13:36.870Z,3.48
2018-05-24T05:19:31.972Z,3.92
2018-05-24T05:25:26.930Z,3.77
2018-05-24T05:31:21.890Z,4.05
2018-05-24T05:37:16.871Z,4.58
2018-05-24T05:43:11.869Z,4.43
2018-05-24T05:49:06.880Z,3.8
2018-05-24T05:55:01.876Z,4.4
2018-05-24T06:00:56.866Z,4.19
2018-05-24T06:06:51.873Z,4.34
2018-05-24T06:12:46.925Z,4.85
2018-05-24T06:18:41.915Z,4.58
2018-05-24T06:24:36.928Z,4.9
2018-05-24T06:30:31.900Z,5.48
2018-05-24T06:36:26.954Z,5.46
2018-05-24T06:42:21.969Z,6.03
2018-05-24T06:48:16.949Z,6.41
2018-05-24T06:54:11.927Z,7.24
2018-05-24T07:00:07.199Z,7.4
2018-05-24T07:06:02.110Z,7.16
2018-05-24T07:11:56.950Z,6.98
2018-05-24T07:17:51.997Z,7.83
2018-05-24T07:23:47.010Z,8.01
2018-05-24T07:29:41.990Z,7.89
2018-05-24T07:35:37.027Z,8.3
2018-05-24T07:41:31.987Z,8.68
2018-05-24T07:47:26.973Z,8.9
2018-05-24T07:53:21.978Z,9.17
2018-05-24T07:59:17.015Z,10.1
2018-05-24T08:05:11.984Z,10.31
2018-05-24T08:11:06.998Z,9.95
2018-05-24T08:17:02.027Z,9.88
2018-05-24T08:22:57.024Z,8.81
2018-05-24T08:28:52.025Z,9.26
2018-05-24T08:34:47.040Z,8.9
2018-05-24T08:40:42.219Z,10.32
2018-05-24T08:46:37.080Z,8.97
2018-05-24T08:52:32.030Z,9.09
2018-05-24T08:58:27.016Z,9.84
2018-05-24T09:04:22.053Z,9.86
2018-05-24T09:10:17.064Z,10.02
2018-05-24T09:16:12.075Z,10.89
2018-05-24T09:22:07.139Z,10.49
2018-05-24T09:28:02.071Z,10.95
2018-05-24T09:33:57.087Z,10.99
2018-05-24T09:39:52.076Z,10.51
2018-05-24T09:45:47.103Z,10.2
2018-05-24T09:51:42.115Z,10.27
2018-05-24T09:57:37.130Z,10.45
2018-05-24T10:03:32.157Z,10.69
2018-05-24T10:09:27.108Z,11.18
2018-05-24T10:15:22.095Z,9.77
2018-05-24T10:21:17.104Z,8.71
2018-05-24T10:27:12.137Z,10.08
2018-05-24T10:33:07.123Z,8.67
2018-05-24T10:39:02.146Z,9.46
2018-05-24T10:44:57.142Z,9.95
2018-05-24T10:50:52.176Z,8.99
2018-05-24T10:56:47.298Z,8.46
2018-05-24T11:02:42.258Z,9.78
2018-05-24T11:08:37.192Z,8.42
2018-05-24T11:14:32.195Z,9.44
2018-05-24T11:20:27.202Z,9.51
2018-05-24T11:26:22.225Z,8.9
2018-05-24T11:32:17.272Z,7.45
2018-05-24T11:38:12.179Z,8.93
2018-05-24T11:44:07.225Z,8.29
2018-05-24T11:50:02.209Z,7.49
2018-05-24T11:55:57.205Z,7.7
2018-05-24T12:01:52.332Z,7.41
2018-05-24T12:07:47.200Z,7.21
2018-05-24T12:13:42.306Z,7.98
2018-05-24T12:19:37.275Z,8.02
2018-05-24T12:25:32.298Z,8.12
2018-05-24T12:31:27.264Z,6.96
2018-05-24T12:37:22.274Z,7.42
2018-05-24T12:43:17.252Z,7.47
2018-05-24T12:49:12.301Z,7.63
2018-05-24T12:55:07.424Z,7.66
2018-05-24T13:01:02.553Z,7.43
2018-05-24T13:06:57.333Z,7.28
2018-05-24T13:12:52.279Z,7.2
2018-05-24T13:18:47.397Z,7.07
2018-05-24T13:24:42.329Z,7.06
2018-05-24T13:30:37.353Z,7.81
2018-05-24T13:36:32.356Z,6.87
2018-05-24T13:42:27.329Z,7.26
2018-05-24T13:48:22.388Z,6.41
2018-05-24T13:54:17.417Z,6.78
2018-05-24T14:00:12.863Z,6.45
2018-05-24T14:06:07.328Z,6.66
2018-05-24T14:12:02.381Z,6.71
2018-05-24T14:17:57.320Z,6.32
2018-05-24T14:23:52.325Z,6.42
2018-05-24T14:29:47.351Z,5.65
2018-05-24T14:35:42.362Z,6.04
2018-05-24T14:41:37.460Z,12.61
2018-05-24T14:47:32.468Z,7.27
2018-05-24T14:53:27.399Z,7.18
2018-05-24T14:59:22.371Z,6.6
2018-05-24T15:05:17.475Z,6.46
2018-05-24T15:11:12.455Z,6.07
2018-05-24T15:17:08.164Z,6.14
2018-05-24T15:23:02.417Z,0
2018-05-24T15:28:57.432Z,6.35
2018-05-24T15:34:52.430Z,6.54
2018-05-24T15:40:47.572Z,6.37
2018-05-24T15:46:42.443Z,5.75
2018-05-24T15:52:37.458Z,5.98
2018-05-24T15:58:32.452Z,6.21
2018-05-24T16:04:27.520Z,7.09
2018-05-24T16:10:22.508Z,6.59
2018-05-24T16:16:17.511Z,7.34
2018-05-24T16:22:12.502Z,6.87
2018-05-24T16:28:07.481Z,6.46
2018-05-24T16:34:02.552Z,6.7
2018-05-24T16:39:57.563Z,6.54
2018-05-24T16:45:52.513Z,6.55
2018-05-24T16:51:47.503Z,7.3
2018-05-24T16:57:42.736Z,7.04
2018-05-24T17:03:37.641Z,6.97
2018-05-24T17:09:32.518Z,6.93
2018-05-24T17:15:27.557Z,6.23
2018-05-24T17:21:22.543Z,6.53
2018-05-24T17:27:17.546Z,6.71
2018-05-24T17:33:12.524Z,6.56
2018-05-24T17:39:07.528Z,6.89
2018-05-24T17:45:02.573Z,7.17
2018-05-24T17:50:57.557Z,7.53
2018-05-24T17:56:52.600Z,7.14
2018-05-24T18:02:47.563Z,7.29
2018-05-24T18:08:42.557Z,7.19
2018-05-24T18:14:37.590Z,7.88
2018-05-24T18:20:32.573Z,7.83
2018-05-24T18:26:27.556Z,8.32
2018-05-24T18:32:22.588Z,9
2018-05-24T18:38:17.666Z,9.18
2018-05-24T18:44:12.589Z,9.67
2018-05-24T18:50:07.591Z,9
2018-05-24T18:56:02.687Z,9.82
2018-05-24T19:01:57.678Z,9.11
2018-05-24T19:07:52.703Z,9.21
2018-05-24T19:13:47.697Z,9.05
2018-05-24T19:19:42.692Z,10.69
2018-05-24T19:25:37.689Z,11.22
2018-05-24T19:31:32.616Z,9.98
2018-05-24T19:37:27.670Z,11
2018-05-24T19:43:22.684Z,9.45
2018-05-24T19:49:17.673Z,10.83
2018-05-24T19:55:12.677Z,9
2018-05-24T20:01:07.690Z,8.15
2018-05-24T20:07:02.686Z,9.32
2018-05-24T20:12:57.722Z,8.66
2018-05-24T20:18:52.742Z,8.59
2018-05-24T20:24:47.668Z,8.45
2018-05-24T20:30:42.670Z,8.37
2018-05-24T20:36:37.751Z,8.84
2018-05-24T20:42:32.802Z,9.19
2018-05-24T20:48:27.700Z,8.37
2018-05-24T20:54:22.745Z,8.62
2018-05-24T21:00:17.779Z,7.87
